الصفحة الرئيسية
METAR-TAF:

METAR-TAF

مطار :

يوكسكوفا, تركيا

دائرة عرض: 37-33-06N, خط طول: 44-14-01E, ارتفاع: 1950 متر

مراقبة الطقس الحالي

تاريخ ووقت الإصدار 1ساعة و 8 دقيقة قبل الساعة 19:50UTC
رياح هادئة
درجة الحرارة 13°درجة مئوية
الرطوبة 94%
ضغط 1021 hPa
الرؤية 10 كم أو أكثر
غيوم قليلة على ارتفاع 3500 قدم
غيوم متفرقة على ارتفاع 8000 قدم

METAR: LTCW 131950Z 00000KT 9999 FEW035 SCT080 13/12 Q1021

زمن: 23:58 (20:58 UTC)

توقعات

تاريخ ووقت الإصدار 1ساعة و 18 دقيقة قبل الساعة 19:40UTC
التوقعات صالحة من13 الساعة 21 UTC إلى 14 الساعة 06 UTC
ريح 2 عقدةمن اتجاهات متغيرة
الرؤية 10 كم أو أكثر
غيوم قليلة على ارتفاع 4000 قدم

TAF: LTCW 131940Z 1321/1406 VRB02KT 9999 FEW040

أرصاد الطقس والتوقعات من أكثر من 4000 مطار (تقارير الطقس للمطار METAR والتنبؤ بالطقس بالمطارTAF).

المحطات المتاحة هي النقط الصفراء والحمراء على الخريطة.

حرك المؤشر فوق النقطة لمعرفة اسم المحطة.

ثم انقر لمعرفة أرصاد وتوقعات الطقس.

لتغيير الخارطة: اضغط على الأزرار الخضراء مع رمز الصليب الأسود للتكبير. على الزر الأخضر مع شرطة للتصغير، أو على الأسهم الخضراء للخرائط المجاورة.


METAR-TAF: